Time;durP1;ratioP1;P1;durP2;ratioP2;P2;SDS_P1;SDS_P2;PMS_P1;PMS_P2;Temp;Humidity;BMP_temperature;BMP_pressure;BME280_temperature;BME280_humidity;BME280_pressure;Samples;Min_cycle;Max_cycle;Signal;HPM_P1;HPM_P2
2020/12/17 00:01:22;;;;;;;3.13;2.50;;;6.00;99.90;;;;;;4938443;29;20028;-79
2020/12/17 00:03:48;;;;;;;6.38;2.55;;;5.80;99.90;;;;;;4938295;29;20574;-78
2020/12/17 00:06:13;;;;;;;2.75;2.05;;;5.70;99.90;;;;;;4955971;29;20078;-78
2020/12/17 00:08:39;;;;;;;3.63;2.70;;;5.60;99.90;;;;;;4954414;29;20124;-78
2020/12/17 00:11:05;;;;;;;3.88;2.75;;;5.50;99.90;;;;;;4954497;29;20035;-80
2020/12/17 00:13:31;;;;;;;3.67;2.78;;;5.70;99.90;;;;;;4922239;29;20034;-79
2020/12/17 00:15:57;;;;;;;3.47;2.65;;;5.40;99.90;;;;;;4954430;29;20043;-78
2020/12/17 00:18:23;;;;;;;3.50;2.58;;;;;;;;;;4954017;29;20133;-80
2020/12/17 00:20:48;;;;;;;5.32;3.13;;;6.00;99.90;;;;;;4938361;29;20128;-80
2020/12/17 00:23:14;;;;;;;4.50;3.10;;;5.80;99.90;;;;;;4937970;29;20215;-78
2020/12/17 00:25:40;;;;;;;5.32;2.40;;;5.70;99.90;;;;;;4955111;29;20036;-78
2020/12/17 00:28:06;;;;;;;3.10;2.72;;;;;;;;;;4938060;29;20032;-79
2020/12/17 00:30:32;;;;;;;2.70;2.45;;;6.00;99.90;;;;;;4954973;29;20371;-78
2020/12/17 00:32:58;;;;;;;6.47;3.17;;;;;;;;;;4937882;29;20036;-79
2020/12/17 00:35:23;;;;;;;5.55;2.90;;;5.80;99.90;;;;;;4954828;29;20066;-79
2020/12/17 00:37:49;;;;;;;4.30;2.92;;;5.70;99.90;;;;;;4953849;28;20024;-79
2020/12/17 00:40:15;;;;;;;5.53;2.90;;;;;;;;;;4937750;29;20525;-78
2020/12/17 00:42:41;;;;;;;4.63;3.10;;;;;;;;;;4937902;29;20425;-79
2020/12/17 00:45:07;;;;;;;4.10;2.65;;;6.00;99.90;;;;;;4938027;29;20027;-78
2020/12/17 00:47:33;;;;;;;3.25;2.70;;;6.00;99.90;;;;;;4937533;29;20027;-78
2020/12/17 00:49:59;;;;;;;6.05;3.10;;;;;;;;;;4937668;29;20070;-79
2020/12/17 00:52:24;;;;;;;3.67;2.80;;;5.50;99.90;;;;;;4937750;29;20019;-80
2020/12/17 00:54:50;;;;;;;3.05;2.50;;;5.60;99.90;;;;;;4921708;29;20460;-77
2020/12/17 00:57:16;;;;;;;4.53;3.25;;;5.90;99.90;;;;;;4921400;29;20474;-78
2020/12/17 00:59:41;;;;;;;5.75;2.85;;;6.10;99.90;;;;;;4953610;28;20059;-79
2020/12/17 01:02:07;;;;;;;3.22;2.50;;;6.30;99.90;;;;;;4954873;29;20075;-80
2020/12/17 01:04:33;;;;;;;3.20;2.35;;;5.90;99.90;;;;;;4937618;29;20034;-78
2020/12/17 01:06:58;;;;;;;3.13;2.10;;;5.80;99.90;;;;;;4954976;28;20035;-78
2020/12/17 01:09:24;;;;;;;5.88;2.40;;;6.10;99.90;;;;;;4952973;28;20059;-80
2020/12/17 01:11:49;;;;;;;2.20;2.00;;;6.10;99.90;;;;;;4937284;29;20086;-78
2020/12/17 01:14:15;;;;;;;2.60;2.40;;;;;;;;;;4921850;29;20090;-78
2020/12/17 01:16:41;;;;;;;4.28;2.80;;;;;;;;;;4954131;28;20509;-78
2020/12/17 01:19:07;;;;;;;3.15;2.60;;;6.00;99.90;;;;;;4937426;29;20059;-80
2020/12/17 01:21:33;;;;;;;2.97;2.30;;;;;;;;;;4953339;29;20418;-79
2020/12/17 01:23:59;;;;;;;2.92;2.58;;;5.30;99.90;;;;;;4954540;29;20033;-79
2020/12/17 01:26:24;;;;;;;2.72;2.42;;;5.30;99.90;;;;;;4954297;28;20039;-79
2020/12/17 01:28:50;;;;;;;2.90;2.60;;;5.30;99.90;;;;;;4953143;29;20039;-79
2020/12/17 01:31:15;;;;;;;3.78;2.13;;;5.10;99.90;;;;;;4953473;29;20110;-79
2020/12/17 01:33:41;;;;;;;2.30;2.10;;;5.20;99.90;;;;;;4937115;29;20023;-79
2020/12/17 01:36:08;;;;;;;2.88;2.20;;;;;;;;;;4937106;29;20039;-79
2020/12/17 01:38:33;;;;;;;2.53;2.05;;;5.10;99.90;;;;;;4937302;29;20035;-78
2020/12/17 01:40:59;;;;;;;2.35;2.15;;;5.50;99.90;;;;;;4937106;29;20158;-79
2020/12/17 01:43:25;;;;;;;4.25;2.30;;;;;;;;;;4936885;29;20053;-79
2020/12/17 01:45:51;;;;;;;3.00;2.42;;;5.20;99.90;;;;;;4937097;29;20035;-79
2020/12/17 01:48:17;;;;;;;2.60;2.40;;;5.40;99.90;;;;;;4953608;28;20034;-78
2020/12/17 01:50:46;;;;;;;7.70;2.50;;;5.30;99.00;;;;;;4952782;28;20023;-79
2020/12/17 01:53:12;;;;;;;3.45;2.60;;;;;;;;;;4953307;28;20470;-79
2020/12/17 01:55:38;;;;;;;2.92;2.40;;;5.30;99.90;;;;;;4936878;29;20134;-79
2020/12/17 01:58:04;;;;;;;4.35;2.30;;;5.30;99.90;;;;;;4936575;29;20130;-80
2020/12/17 02:00:34;;;;;;;4.93;2.35;;;5.40;99.90;;;;;;4968943;28;20027;-78
2020/12/17 02:03:00;;;;;;;3.50;2.20;;;5.30;92.50;;;;;;4937195;29;20038;-79
2020/12/17 02:05:26;;;;;;;2.67;2.17;;;;;;;;;;4936932;29;20106;-78
2020/12/17 02:07:52;;;;;;;2.38;1.85;;;5.60;97.20;;;;;;4954108;29;20020;-80
2020/12/17 02:10:17;;;;;;;2.78;1.88;;;5.70;99.80;;;;;;4952941;29;20050;-79
2020/12/17 02:12:47;;;;;;;2.38;2.17;;;5.60;96.40;;;;;;4936583;29;20114;-79
2020/12/17 02:15:13;;;;;;;2.78;2.08;;;5.60;99.90;;;;;;4936669;29;20359;-79
2020/12/17 02:17:39;;;;;;;2.35;2.15;;;5.40;99.50;;;;;;4952816;28;20039;-78
2020/12/17 02:20:06;;;;;;;2.55;2.35;;;;;;;;;;4952912;28;20121;-79
2020/12/17 02:22:31;;;;;;;2.38;2.17;;;5.20;99.90;;;;;;4939462;29;20038;-80
2020/12/17 02:24:57;;;;;;;5.03;2.60;;;5.50;92.10;;;;;;4924431;29;20031;-78
2020/12/17 02:27:23;;;;;;;5.80;2.42;;;;;;;;;;4940098;29;20050;-78
2020/12/17 02:29:49;;;;;;;2.45;2.25;;;5.10;99.90;;;;;;4957307;29;20429;-80
2020/12/17 02:32:15;;;;;;;2.95;2.60;;;4.80;99.90;;;;;;4940255;29;20023;-79
2020/12/17 02:34:41;;;;;;;3.25;2.50;;;;;;;;;;4957438;29;20070;-79
2020/12/17 02:37:08;;;;;;;3.20;2.28;;;5.00;99.90;;;;;;4940234;29;20039;-79
2020/12/17 02:39:34;;;;;;;3.25;2.45;;;;;;;;;;4940647;29;20020;-78
2020/12/17 02:42:00;;;;;;;2.38;2.17;;;;;;;;;;4957001;29;20035;-79
2020/12/17 02:44:26;;;;;;;4.50;2.30;;;;;;;;;;4956935;28;20445;-78
2020/12/17 02:46:52;;;;;;;2.20;2.00;;;;;;;;;;4957465;29;20070;-79
2020/12/17 02:49:18;;;;;;;2.20;2.03;;;;;;;;;;4939896;29;20110;-79
2020/12/17 02:51:44;;;;;;;2.50;2.30;;;5.50;99.90;;;;;;4939839;29;20059;-78
2020/12/17 02:54:09;;;;;;;2.80;2.20;;;5.60;99.90;;;;;;4939706;29;20031;-78
2020/12/17 02:56:35;;;;;;;2.33;2.13;;;5.90;99.90;;;;;;4955448;29;20047;-79
2020/12/17 02:59:01;;;;;;;2.30;2.10;;;5.50;99.90;;;;;;4956871;29;20100;-78
2020/12/17 03:01:27;;;;;;;3.90;2.50;;;6.10;99.90;;;;;;4955539;28;20031;-78
2020/12/17 03:03:52;;;;;;;5.03;3.08;;;5.90;99.90;;;;;;4955725;29;20031;-78
2020/12/17 03:06:18;;;;;;;3.28;2.35;;;5.80;99.90;;;;;;4939417;29;20155;-78
2020/12/17 03:08:44;;;;;;;4.18;3.47;;;5.80;99.90;;;;;;4939583;29;20046;-78
2020/12/17 03:11:09;;;;;;;2.97;2.67;;;6.10;99.90;;;;;;4956686;29;20040;-78
2020/12/17 03:13:35;;;;;;;2.30;2.10;;;5.80;99.90;;;;;;4939346;29;20031;-78
2020/12/17 03:16:00;;;;;;;3.42;2.50;;;6.00;99.50;;;;;;4956507;29;20190;-78
2020/12/17 03:18:26;;;;;;;2.47;2.28;;;6.00;99.50;;;;;;4939375;29;20038;-79
2020/12/17 03:20:52;;;;;;;3.90;2.88;;;;;;;;;;4939084;29;20603;-79
2020/12/17 03:23:18;;;;;;;2.45;2.22;;;6.00;98.20;;;;;;4939230;29;20019;-78
2020/12/17 03:25:43;;;;;;;3.38;2.60;;;6.50;91.10;;;;;;4954940;28;20122;-79
2020/12/17 03:28:09;;;;;;;2.38;2.17;;;6.30;99.20;;;;;;4939253;29;20031;-80
2020/12/17 03:30:34;;;;;;;4.57;2.60;;;6.40;99.90;;;;;;4939056;29;20027;-79
2020/12/17 03:33:00;;;;;;;3.55;2.53;;;6.40;90.70;;;;;;4938191;29;20074;-79
2020/12/17 03:35:26;;;;;;;3.17;2.40;;;6.60;90.60;;;;;;4956089;29;20043;-78
2020/12/17 03:37:52;;;;;;;3.83;2.60;;;;;;;;;;4939051;29;20027;-79
2020/12/17 03:40:17;;;;;;;4.05;2.47;;;6.50;97.40;;;;;;4939135;29;20020;-79
2020/12/17 03:42:43;;;;;;;4.03;2.50;;;6.70;90.10;;;;;;4938893;29;20050;-79
2020/12/17 03:45:08;;;;;;;3.28;2.22;;;6.60;99.90;;;;;;4939062;29;20023;-79
2020/12/17 03:47:34;;;;;;;3.00;2.70;;;6.60;99.90;;;;;;4955953;29;20034;-80
2020/12/17 03:50:00;;;;;;;4.43;2.60;;;6.80;90.30;;;;;;4938923;29;20035;-80
2020/12/17 03:52:25;;;;;;;3.28;2.30;;;7.00;99.90;;;;;;4955806;29;20031;-79
2020/12/17 03:54:51;;;;;;;2.40;2.13;;;6.80;99.90;;;;;;4938510;29;20485;-79
2020/12/17 03:57:16;;;;;;;4.18;2.42;;;6.90;97.60;;;;;;4938217;29;20094;-79
2020/12/17 03:59:42;;;;;;;2.90;2.70;;;;;;;;;;4938403;29;20389;-78
2020/12/17 04:02:08;;;;;;;4.22;2.40;;;7.10;99.90;;;;;;4938526;29;20034;-79
2020/12/17 04:04:34;;;;;;;4.07;2.60;;;6.80;90.30;;;;;;4955656;29;20162;-79
2020/12/17 04:07:00;;;;;;;2.50;2.30;;;;;;;;;;4938415;29;20097;-79
2020/12/17 04:09:25;;;;;;;3.22;2.40;;;7.30;99.90;;;;;;4938644;29;20028;-79
2020/12/17 04:11:51;;;;;;;3.08;2.40;;;7.00;90.60;;;;;;4955570;29;20389;-79
2020/12/17 04:14:16;;;;;;;2.20;2.00;;;7.10;99.90;;;;;;4955551;29;20035;-79
2020/12/17 04:16:42;;;;;;;2.92;2.28;;;7.30;99.90;;;;;;4955325;29;20046;-80
2020/12/17 04:19:07;;;;;;;3.50;2.55;;;7.10;90.30;;;;;;4938218;29;20105;-79
2020/12/17 04:21:33;;;;;;;3.47;2.42;;;6.70;99.90;;;;;;4937954;29;20467;-78
2020/12/17 04:23:58;;;;;;;3.35;2.80;;;7.00;97.10;;;;;;4955218;29;20027;-79
2020/12/17 04:26:24;;;;;;;3.72;2.20;;;7.00;90.60;;;;;;4937959;29;20031;-80
2020/12/17 04:28:50;;;;;;;2.85;2.40;;;7.00;99.90;;;;;;4954141;29;20039;-79
2020/12/17 04:31:15;;;;;;;3.60;2.78;;;7.00;97.40;;;;;;4953968;28;20489;-79
2020/12/17 04:33:41;;;;;;;13.57;12.23;;;7.00;90.10;;;;;;4937959;29;20028;-78
2020/12/17 04:36:07;;;;;;;2.97;2.67;;;;;;;;;;4970048;28;20174;-78
2020/12/17 04:38:32;;;;;;;4.00;2.70;;;7.60;99.90;;;;;;4954875;29;20474;-79
2020/12/17 04:41:03;;;;;;;3.20;2.75;;;7.50;96.80;;;;;;4937671;29;20035;-79
2020/12/17 04:43:29;;;;;;;13.57;9.27;;;;;;;;;;4937928;29;20045;-78
2020/12/17 04:45:54;;;;;;;21.50;17.30;;;7.40;96.10;;;;;;4955066;28;20045;-80
2020/12/17 04:48:20;;;;;;;18.00;12.48;;;7.50;99.90;;;;;;4953729;29;20046;-79
2020/12/17 04:50:45;;;;;;;8.52;6.57;;;7.90;95.40;;;;;;4953429;28;20469;-79
2020/12/17 04:53:13;;;;;;;7.82;6.18;;;7.70;89.40;;;;;;4937756;29;20035;-79
2020/12/17 04:55:39;;;;;;;5.53;4.10;;;;;;;;;;4953449;28;20023;-80
2020/12/17 04:58:05;;;;;;;4.38;3.92;;;7.60;99.90;;;;;;4937543;29;20065;-79
2020/12/17 05:00:31;;;;;;;3.60;3.25;;;8.30;99.90;;;;;;4953466;28;20509;-79
2020/12/17 05:02:56;;;;;;;6.60;3.22;;;8.20;99.90;;;;;;4954719;28;20062;-80
2020/12/17 05:05:25;;;;;;;6.07;5.20;;;8.10;91.50;;;;;;4953378;29;20023;-81
2020/12/17 05:07:51;;;;;;;7.50;6.28;;;8.00;88.10;;;;;;4954355;29;20046;-79
2020/12/17 05:10:16;;;;;;;5.13;3.70;;;8.00;88.00;;;;;;4937547;29;20027;-79
2020/12/17 05:12:42;;;;;;;5.00;4.00;;;;;;;;;;4954629;29;20027;-80
2020/12/17 05:15:08;;;;;;;5.80;3.60;;;8.00;88.60;;;;;;4937414;29;20062;-78
2020/12/17 05:17:33;;;;;;;3.63;3.20;;;8.20;86.90;;;;;;4937224;29;20075;-79
2020/12/17 05:19:59;;;;;;;6.78;3.00;;;;;;;;;;4937292;29;20452;-80
2020/12/17 05:22:25;;;;;;;5.00;3.47;;;8.40;99.90;;;;;;4937364;29;20398;-79
2020/12/17 05:24:51;;;;;;;84.20;44.20;;;8.30;84.50;;;;;;4937305;29;20030;-79
2020/12/17 05:27:17;;;;;;;30.75;20.67;;;;;;;;;;4954448;29;20359;-79
2020/12/17 05:29:43;;;;;;;37.80;24.02;;;8.50;99.90;;;;;;4969257;28;20129;-81
2020/12/17 05:32:09;;;;;;;22.30;15.80;;;8.50;84.70;;;;;;4953021;29;20485;-79
2020/12/17 05:34:35;;;;;;;6.50;5.20;;;8.60;83.90;;;;;;4937539;29;20024;-80
2020/12/17 05:37:01;;;;;;;4.72;4.05;;;8.70;99.90;;;;;;4937320;29;20487;-79
2020/12/17 05:39:27;;;;;;;6.05;4.35;;;9.00;94.60;;;;;;4954378;29;20038;-79
2020/12/17 05:41:53;;;;;;;4.50;3.90;;;8.70;95.20;;;;;;4953389;28;20023;-79
2020/12/17 05:44:29;;;;;;;3.97;3.30;;;9.00;92.90;;;;;;4937288;29;20027;-79
2020/12/17 05:46:55;;;;;;;4.88;3.75;;;8.90;95.00;;;;;;4954456;28;20031;-79
2020/12/17 05:49:31;;;;;;;7.75;3.53;;;8.80;94.40;;;;;;4937330;29;20027;-78
2020/12/17 05:52:09;;;;;;;4.45;3.92;;;8.90;81.50;;;;;;4937874;28;20031;-80
2020/12/17 05:54:35;;;;;;;4.22;3.45;;;;;;;;;;4954404;29;20471;-79
2020/12/17 05:57:20;;;;;;;6.03;3.70;;;8.90;92.20;;;;;;4939291;29;20046;-79
2020/12/17 05:59:59;;;;;;;6.78;3.22;;;8.80;96.80;;;;;;4941975;29;20040;-81
2020/12/17 06:02:29;;;;;;;4.63;3.20;;;9.10;99.90;;;;;;4924892;29;20039;-79
2020/12/17 06:05:10;;;;;;;4.53;3.10;;;9.10;81.60;;;;;;4956894;28;20493;-79
2020/12/17 06:07:48;;;;;;;3.72;3.15;;;9.30;91.20;;;;;;4958145;29;20087;-79
2020/12/17 06:10:26;;;;;;;4.35;3.20;;;9.50;97.30;;;;;;4957641;28;20031;-79
2020/12/17 06:12:59;;;;;;;7.97;3.22;;;9.40;80.20;;;;;;4942198;29;20089;-79
2020/12/17 06:15:28;;;;;;;6.53;2.95;;;;;;;;;;4957302;28;20421;-79
2020/12/17 06:17:55;;;;;;;4.20;2.80;;;9.70;95.20;;;;;;4940777;29;20035;-80
2020/12/17 06:20:25;;;;;;;5.53;3.25;;;9.60;83.80;;;;;;4940781;29;20031;-79
2020/12/17 06:22:57;;;;;;;3.67;3.00;;;9.20;99.90;;;;;;4940516;29;20386;-79
2020/12/17 06:25:24;;;;;;;3.42;2.90;;;9.60;99.90;;;;;;4940692;29;20035;-78
2020/12/17 06:27:50;;;;;;;4.00;2.90;;;9.60;82.80;;;;;;4940524;29;20031;-80
2020/12/17 06:30:22;;;;;;;3.33;3.00;;;9.70;83.30;;;;;;4956225;28;20413;-79
2020/12/17 06:32:48;;;;;;;3.63;2.70;;;9.90;93.30;;;;;;4940272;29;20386;-79
2020/12/17 06:35:51;;;;;;;3.25;2.95;;;9.90;79.20;;;;;;4939838;29;20037;-80
2020/12/17 06:38:21;;;;;;;3.05;2.75;;;10.40;87.20;;;;;;4940346;29;20050;-79
2020/12/17 06:40:46;;;;;;;3.33;2.83;;;10.30;77.60;;;;;;4939796;29;20031;-79
2020/12/17 06:43:28;;;;;;;4.07;2.80;;;10.20;77.70;;;;;;4957331;29;20027;-79
2020/12/17 06:45:54;;;;;;;3.72;3.10;;;10.20;97.70;;;;;;4942576;29;20058;-79
2020/12/17 06:48:38;;;;;;;3.47;2.90;;;10.20;77.60;;;;;;4939952;29;20465;-79
2020/12/17 06:51:31;;;;;;;2.90;2.60;;;10.20;92.90;;;;;;4941244;29;20070;-79
2020/12/17 06:53:56;;;;;;;3.97;2.65;;;9.80;91.90;;;;;;4955904;28;20023;-77
2020/12/17 06:56:22;;;;;;;2.83;2.53;;;10.10;78.30;;;;;;4939552;29;20474;-78
2020/12/17 06:58:48;;;;;;;3.20;2.83;;;10.10;77.90;;;;;;4956095;28;20095;-79
2020/12/17 07:01:24;;;;;;;4.03;2.65;;;9.80;98.00;;;;;;4927858;29;20385;-79
2020/12/17 07:03:50;;;;;;;6.43;3.55;;;9.90;97.80;;;;;;4939650;29;20474;-79
2020/12/17 07:06:25;;;;;;;4.32;3.20;;;10.10;77.90;;;;;;4924000;29;20023;-81
2020/12/17 07:08:58;;;;;;;4.28;3.22;;;10.10;77.60;;;;;;4926062;28;20035;-78
2020/12/17 07:11:46;;;;;;;3.00;2.67;;;10.30;92.30;;;;;;4953659;28;20529;-79
2020/12/17 07:14:24;;;;;;;4.85;2.92;;;10.30;87.80;;;;;;4931350;28;20027;-80
2020/12/17 07:16:57;;;;;;;3.40;3.08;;;10.30;89.90;;;;;;4975520;28;20042;-80
2020/12/17 07:19:23;;;;;;;3.55;2.90;;;10.30;89.20;;;;;;4958963;28;20050;-80
2020/12/17 07:21:51;;;;;;;16.38;11.52;;;10.00;90.00;;;;;;4958352;28;20096;-84
2020/12/17 07:24:26;;;;;;;5.97;4.25;;;10.20;98.10;;;;;;4975527;28;20026;-79
2020/12/17 07:26:53;;;;;;;4.30;3.03;;;10.60;97.00;;;;;;4942854;28;20038;-78
2020/12/17 07:29:18;;;;;;;5.88;3.10;;;10.20;77.80;;;;;;4945813;29;20028;-78
2020/12/17 07:31:44;;;;;;;4.55;3.42;;;10.20;77.50;;;;;;4956110;29;20106;-79
2020/12/17 07:34:16;;;;;;;4.55;3.10;;;10.20;78.30;;;;;;4954705;28;20045;-79
2020/12/17 07:36:43;;;;;;;7.53;3.17;;;10.10;89.50;;;;;;4958195;28;20053;-77
2020/12/17 07:39:09;;;;;;;4.28;3.00;;;10.10;99.50;;;;;;4937687;28;20141;-77
2020/12/17 07:41:34;;;;;;;5.03;3.10;;;9.90;95.70;;;;;;4941347;28;20101;-78
2020/12/17 07:44:00;;;;;;;4.78;3.38;;;10.10;79.20;;;;;;4957244;28;20510;-80
2020/12/17 07:46:37;;;;;;;4.70;3.42;;;10.10;79.10;;;;;;4974474;28;20034;-79
2020/12/17 07:49:22;;;;;;;3.50;3.05;;;9.80;92.30;;;;;;4974803;28;20053;-79
2020/12/17 07:51:48;;;;;;;4.57;3.33;;;;;;;;;;4940643;28;20058;-81
2020/12/17 07:54:18;;;;;;;4.60;3.17;;;9.90;78.80;;;;;;4941140;28;20034;-79
2020/12/17 07:56:44;;;;;;;6.07;3.72;;;9.90;79.70;;;;;;4941155;28;20039;-80
2020/12/17 07:59:10;;;;;;;4.40;3.08;;;;;;;;;;4925280;28;20501;-81
2020/12/17 08:01:35;;;;;;;3.28;2.97;;;10.00;92.90;;;;;;4974495;28;20062;-81
2020/12/17 08:04:01;;;;;;;4.95;3.10;;;9.90;79.40;;;;;;4941275;28;20057;-80
2020/12/17 08:06:28;;;;;;;5.00;2.83;;;10.10;98.50;;;;;;4957754;28;20031;-78
2020/12/17 08:09:01;;;;;;;4.40;2.72;;;10.10;92.60;;;;;;4941840;28;20038;-80
2020/12/17 08:11:27;;;;;;;5.57;2.97;;;;;;;;;;4942695;28;20027;-79
2020/12/17 08:14:07;;;;;;;3.33;2.70;;;10.00;88.20;;;;;;4957799;28;20026;-78
2020/12/17 08:16:33;;;;;;;4.95;2.90;;;10.10;79.90;;;;;;4941954;28;20050;-84
2020/12/17 08:18:59;;;;;;;3.88;2.75;;;10.20;97.80;;;;;;4957136;28;20058;-83
2020/12/17 08:21:31;;;;;;;5.03;3.20;;;10.20;91.90;;;;;;4941831;28;20019;-81
2020/12/17 08:23:57;;;;;;;4.68;3.20;;;10.20;78.10;;;;;;4941585;28;20031;-82
2020/12/17 08:26:24;;;;;;;4.95;3.17;;;10.30;78.40;;;;;;4925717;28;20101;-82
2020/12/17 08:28:51;;;;;;;3.72;3.05;;;;;;;;;;4925595;28;20158;-81
2020/12/17 08:31:27;;;;;;;4.70;3.13;;;10.20;92.60;;;;;;4957038;28;20500;-80
2020/12/17 08:33:56;;;;;;;5.28;3.15;;;10.30;78.50;;;;;;4931231;29;20030;-80
2020/12/17 08:36:28;;;;;;;4.15;2.97;;;10.40;89.10;;;;;;4921874;29;20043;-79
2020/12/17 08:38:53;;;;;;;;;;;10.30;86.90;;;;;;4923653;29;20378;-79
2020/12/17 08:41:19;;;;;;;5.53;2.95;;;10.70;92.20;;;;;;4957503;28;19953;-77
2020/12/17 08:43:46;;;;;;;10.82;6.85;;;10.40;78.80;;;;;;4932317;28;20027;-78
2020/12/17 08:46:16;;;;;;;5.95;4.13;;;10.50;78.60;;;;;;4953646;28;20117;-79
2020/12/17 08:48:42;;;;;;;6.32;3.80;;;10.40;77.80;;;;;;4953940;28;20162;-80
2020/12/17 08:51:17;;;;;;;4.35;3.20;;;10.40;97.00;;;;;;4931466;28;20031;-80
2020/12/17 08:53:43;;;;;;;4.32;3.22;;;10.90;97.20;;;;;;4930367;28;20373;-80
2020/12/17 08:56:19;;;;;;;5.18;3.38;;;10.50;77.60;;;;;;4937874;28;20089;-84
2020/12/17 08:58:54;;;;;;;7.65;4.82;;;10.80;90.70;;;;;;4925230;28;20051;-82
2020/12/17 09:01:31;;;;;;;9.63;8.63;;;11.10;96.60;;;;;;4940703;28;20050;-82
2020/12/17 09:03:57;;;;;;;21.77;19.52;;;10.80;76.70;;;;;;4940964;28;20030;-80
2020/12/17 09:06:26;;;;;;;10.40;8.02;;;10.80;77.30;;;;;;4940639;28;20054;-81
2020/12/17 09:08:52;;;;;;;5.30;4.60;;;10.80;77.30;;;;;;4925345;29;20027;-85
2020/12/17 09:11:30;;;;;;;3.70;3.28;;;10.80;78.80;;;;;;4921782;29;20377;-82
2020/12/17 09:17:35;;;;;;;3.15;2.60;;;11.00;97.30;;;;;;4896617;29;20132;-80
2020/12/17 09:20:01;;;;;;;4.53;3.20;;;;;;;;;;4915221;29;20119;-80
2020/12/17 09:22:33;;;;;;;5.22;3.20;;;11.10;97.00;;;;;;4935492;29;20032;-82
2020/12/17 09:24:59;;;;;;;4.45;3.55;;;11.00;77.90;;;;;;4918876;29;20031;-80
2020/12/17 09:27:26;;;;;;;4.03;2.83;;;11.10;77.30;;;;;;4918338;29;20035;-83
2020/12/17 09:30:07;;;;;;;6.40;3.58;;;11.20;97.00;;;;;;4902246;29;20080;-82
2020/12/17 09:32:37;;;;;;;6.00;3.45;;;11.20;86.20;;;;;;4917454;29;20144;-84
2020/12/17 09:35:03;;;;;;;3.92;3.00;;;11.30;87.50;;;;;;4902429;29;20023;-87
2020/12/17 09:37:29;;;;;;;4.78;3.22;;;11.50;97.00;;;;;;4917982;29;20039;-83
2020/12/17 09:39:55;;;;;;;5.20;3.50;;;;;;;;;;4918262;29;20028;-83
2020/12/17 09:42:21;;;;;;;4.53;3.10;;;11.60;73.20;;;;;;4925451;29;20426;-83
2020/12/17 09:44:46;;;;;;;3.17;2.83;;;11.60;76.10;;;;;;4902394;29;20132;-81
2020/12/17 09:47:12;;;;;;;4.03;2.85;;;12.00;94.90;;;;;;4943426;28;20035;-85
2020/12/17 09:49:38;;;;;;;5.85;3.05;;;11.70;96.60;;;;;;4937194;29;20031;-86
2020/12/17 09:52:11;;;;;;;3.75;2.80;;;11.90;96.50;;;;;;4939855;28;20537;-84
2020/12/17 09:54:43;;;;;;;3.10;2.70;;;11.80;84.10;;;;;;4948852;29;20028;-85
2020/12/17 09:57:12;;;;;;;;;;;11.70;75.40;;;;;;4928491;28;20043;-84
2020/12/17 09:59:39;;;;;;;3.65;3.03;;;12.00;96.50;;;;;;4951169;28;20002;-82
2020/12/17 10:02:06;;;;;;;5.22;4.03;;;11.70;90.30;;;;;;4954467;28;20031;-84
2020/12/17 10:04:32;;;;;;;4.18;2.97;;;11.70;75.20;;;;;;4923385;28;20031;-84
2020/12/17 10:06:58;;;;;;;7.53;4.22;;;;;;;;;;4923729;28;20145;-84
2020/12/17 10:09:24;;;;;;;4.82;3.40;;;13.40;93.10;;;;;;4937237;28;20047;-82
2020/12/17 10:11:54;;;;;;;4.20;3.30;;;13.30;72.70;;;;;;4923694;29;20031;-79
2020/12/17 10:14:20;;;;;;;4.85;3.40;;;;;;;;;;4951968;28;20023;-83
2020/12/17 10:16:46;;;;;;;7.50;3.35;;;15.30;90.30;;;;;;4936183;29;20043;-87
2020/12/17 10:19:12;;;;;;;3.38;2.85;;;15.30;64.90;;;;;;4955806;28;20031;-86
2020/12/17 10:21:37;;;;;;;5.80;2.95;;;16.00;62.80;;;;;;4924559;28;20041;-85
2020/12/17 10:24:04;;;;;;;5.30;2.97;;;;;;;;;;4921971;28;20068;-89
2020/12/17 10:26:30;;;;;;;4.35;3.00;;;;;;;;;;4942277;28;20027;-85
2020/12/17 10:28:57;;;;;;;5.03;3.17;;;17.10;57.00;;;;;;4940212;28;20031;-87
2020/12/17 10:31:23;;;;;;;4.30;3.00;;;;;;;;;;4924962;28;20053;-87
2020/12/17 10:33:49;;;;;;;3.25;2.95;;;16.40;63.50;;;;;;4940675;28;20023;-87
2020/12/17 10:36:14;;;;;;;3.70;2.90;;;15.20;63.30;;;;;;4924856;28;20037;-85
2020/12/17 10:38:40;;;;;;;4.63;3.33;;;;;;;;;;4924830;28;20034;-87
2020/12/17 10:41:06;;;;;;;4.53;3.30;;;;;;;;;;4956705;28;20034;-88
2020/12/17 10:43:32;;;;;;;6.15;3.47;;;13.80;65.50;;;;;;4942745;28;20023;-86
2020/12/17 10:45:57;;;;;;;4.03;3.60;;;13.50;67.00;;;;;;4928390;28;20042;-87
2020/12/17 10:48:23;;;;;;;7.20;3.20;;;13.00;82.10;;;;;;4943973;28;20030;-87
2020/12/17 10:50:48;;;;;;;6.60;3.45;;;13.00;71.20;;;;;;4927845;28;20166;-89
2020/12/17 10:53:15;;;;;;;4.75;3.40;;;13.00;79.40;;;;;;4927866;28;20035;-88
2020/12/17 10:55:41;;;;;;;4.03;3.03;;;13.40;91.50;;;;;;4959540;28;20029;-87
2020/12/17 10:58:07;;;;;;;4.43;3.40;;;13.50;93.50;;;;;;4943258;28;20054;-87
2020/12/17 11:00:33;;;;;;;5.18;3.40;;;13.20;72.00;;;;;;4928172;28;20035;-90
2020/12/17 11:02:59;;;;;;;5.22;3.80;;;13.20;93.60;;;;;;4927846;28;20023;-87
2020/12/17 11:05:24;;;;;;;3.90;3.50;;;13.20;93.10;;;;;;4927419;28;20023;-86
2020/12/17 11:07:50;;;;;;;19.67;13.07;;;13.20;72.30;;;;;;4943304;28;20026;-87
2020/12/17 11:10:16;;;;;;;19.45;11.00;;;12.90;93.40;;;;;;4927320;28;20077;-86
2020/12/17 11:12:41;;;;;;;6.07;4.15;;;12.70;88.40;;;;;;4927519;28;20059;-88
2020/12/17 11:15:07;;;;;;;6.22;4.50;;;13.10;73.20;;;;;;4927326;28;20060;-85
2020/12/17 11:17:33;;;;;;;5.60;3.85;;;;;;;;;;4927372;28;20118;-88
2020/12/17 11:19:58;;;;;;;6.30;4.70;;;13.00;93.70;;;;;;4959454;28;20038;-87
2020/12/17 11:22:24;;;;;;;12.30;9.07;;;13.10;73.20;;;;;;4927320;28;20049;-87
2020/12/17 11:24:50;;;;;;;14.07;6.85;;;12.30;82.50;;;;;;4936945;29;20038;-85
2020/12/17 11:27:16;;;;;;;10.88;6.32;;;12.70;93.80;;;;;;4908004;29;20130;-88
2020/12/17 11:29:42;;;;;;;5.60;4.15;;;;;;;;;;4940004;29;20114;-87
2020/12/17 11:32:07;;;;;;;10.18;7.97;;;12.60;94.30;;;;;;4939795;29;20166;-89
2020/12/17 11:34:33;;;;;;;6.50;4.20;;;12.80;94.40;;;;;;4929592;29;20034;-88
2020/12/17 11:36:59;;;;;;;5.18;3.70;;;;;;;;;;4931877;29;20042;-88
2020/12/17 11:39:25;;;;;;;5.53;4.22;;;;;;;;;;4939717;29;20485;-86
2020/12/17 11:41:51;;;;;;;4.25;2.90;;;12.50;93.70;;;;;;4938958;28;20035;-87
2020/12/17 11:44:17;;;;;;;5.70;3.88;;;12.20;75.90;;;;;;4907928;29;20090;-88
2020/12/17 11:46:43;;;;;;;5.65;3.72;;;12.20;76.40;;;;;;4923970;29;20023;-90
2020/12/17 11:49:09;;;;;;;5.05;3.35;;;12.20;95.40;;;;;;4905692;29;20038;-87
2020/12/17 11:51:35;;;;;;;6.18;4.75;;;12.10;77.00;;;;;;4907824;29;20449;-86
2020/12/17 11:54:00;;;;;;;5.78;3.10;;;12.10;76.10;;;;;;4919664;29;20402;-87
2020/12/17 11:56:26;;;;;;;4.93;3.13;;;;;;;;;;4936816;29;20130;-88
2020/12/17 11:58:52;;;;;;;4.05;3.05;;;12.00;82.10;;;;;;4939011;29;20058;-86
2020/12/17 12:01:17;;;;;;;5.55;3.00;;;12.00;77.10;;;;;;4907710;29;20035;-85
2020/12/17 12:03:43;;;;;;;6.10;3.22;;;11.90;95.80;;;;;;4923535;29;20035;-88
2020/12/17 12:06:13;;;;;;;4.07;3.45;;;11.60;91.80;;;;;;4920158;29;20450;-86
2020/12/17 12:08:39;;;;;;;3.30;2.63;;;;;;;;;;4951924;28;20158;-87
2020/12/17 12:11:05;;;;;;;5.18;3.20;;;;;;;;;;4951947;29;20028;-89
2020/12/17 12:13:31;;;;;;;4.78;2.80;;;11.90;96.30;;;;;;4951790;29;20023;-86
2020/12/17 12:15:57;;;;;;;4.38;2.92;;;11.80;77.80;;;;;;4935865;29;20040;-88
2020/12/17 12:18:23;;;;;;;2.90;2.60;;;;;;;;;;4935660;29;20110;-88
2020/12/17 12:20:48;;;;;;;2.50;2.25;;;11.70;96.30;;;;;;4951830;29;20039;-88
2020/12/17 12:23:16;;;;;;;3.30;3.00;;;11.80;77.60;;;;;;4931514;29;20031;-87
2020/12/17 12:25:42;;;;;;;3.70;2.70;;;;;;;;;;4923558;29;20462;-86
2020/12/17 12:28:08;;;;;;;3.03;2.70;;;11.90;96.20;;;;;;4938844;29;20027;-86
2020/12/17 12:30:33;;;;;;;3.10;2.65;;;11.80;77.80;;;;;;4923387;29;20446;-87
2020/12/17 12:33:00;;;;;;;5.05;3.30;;;;;;;;;;4922710;29;20031;-87
2020/12/17 12:35:25;;;;;;;3.65;2.45;;;11.80;92.90;;;;;;4937767;29;20027;-85
2020/12/17 12:37:51;;;;;;;4.65;3.42;;;11.80;78.40;;;;;;4912363;28;20042;-80
2020/12/17 12:40:17;;;;;;;5.18;3.72;;;11.80;77.20;;;;;;4923064;29;20030;-85
2020/12/17 12:42:42;;;;;;;5.00;3.25;;;11.80;96.30;;;;;;4937688;29;20059;-80
2020/12/17 12:45:08;;;;;;;4.45;3.38;;;11.80;77.80;;;;;;4937823;29;20053;-81
2020/12/17 12:47:34;;;;;;;3.75;2.63;;;11.90;77.40;;;;;;4921834;29;20573;-83
2020/12/17 12:50:00;;;;;;;4.53;2.63;;;;;;;;;;4921886;29;20063;-84
2020/12/17 12:52:25;;;;;;;5.38;3.45;;;11.80;82.60;;;;;;4937272;29;20057;-83
2020/12/17 12:54:51;;;;;;;5.45;3.70;;;11.90;77.30;;;;;;4922037;29;20134;-80
2020/12/17 12:57:17;;;;;;;3.47;2.40;;;;;;;;;;4928523;29;20082;-85
2020/12/17 12:59:43;;;;;;;4.53;2.80;;;11.60;95.90;;;;;;4937801;29;20062;-82
2020/12/17 13:02:08;;;;;;;6.07;2.85;;;11.90;77.30;;;;;;4921866;29;20028;-86
2020/12/17 13:04:34;;;;;;;3.53;2.60;;;12.00;96.60;;;;;;4921765;29;20032;-85
2020/12/17 13:07:00;;;;;;;3.70;2.90;;;11.70;96.00;;;;;;4926033;28;20026;-83
2020/12/17 13:09:26;;;;;;;3.63;2.33;;;11.80;77.20;;;;;;4952794;28;20019;-81
2020/12/17 13:11:55;;;;;;;5.07;2.50;;;11.90;77.10;;;;;;4948092;28;20041;-81
2020/12/17 13:14:21;;;;;;;3.83;2.67;;;;;;;;;;4935021;28;20139;-80